sensor_id;sensor_type;location;lat;lon;timestamp;temperature;humidity
21312;DHT22;18076;52.154;10.570;2023-03-01T00:01:39;-1.40;99.90
21312;DHT22;18076;52.154;10.570;2023-03-01T00:04:04;-1.40;99.90
21312;DHT22;18076;52.154;10.570;2023-03-01T00:06:30;-1.40;99.90
21312;DHT22;18076;52.154;10.570;2023-03-01T00:08:55;-1.40;99.90
21312;DHT22;18076;52.154;10.570;2023-03-01T00:11:27;-1.40;99.90
21312;DHT22;18076;52.154;10.570;2023-03-01T00:13:56;-1.40;99.90
21312;DHT22;18076;52.154;10.570;2023-03-01T00:16:23;-1.40;99.90
21312;DHT22;18076;52.154;10.570;2023-03-01T00:18:49;-1.50;99.90
21312;DHT22;18076;52.154;10.570;2023-03-01T00:21:14;-1.50;99.90
21312;DHT22;18076;52.154;10.570;2023-03-01T00:23:40;-1.50;99.90
21312;DHT22;18076;52.154;10.570;2023-03-01T00:26:06;-1.60;99.90
21312;DHT22;18076;52.154;10.570;2023-03-01T00:28:32;-1.50;99.90
21312;DHT22;18076;52.154;10.570;2023-03-01T00:31:04;-1.50;99.90
21312;DHT22;18076;52.154;10.570;2023-03-01T00:33:30;-1.60;99.90
21312;DHT22;18076;52.154;10.570;2023-03-01T00:35:57;-1.60;99.90
21312;DHT22;18076;52.154;10.570;2023-03-01T00:38:23;-1.70;99.90
21312;DHT22;18076;52.154;10.570;2023-03-01T00:40:48;-1.60;99.90
21312;DHT22;18076;52.154;10.570;2023-03-01T00:43:14;-1.70;99.90
21312;DHT22;18076;52.154;10.570;2023-03-01T00:45:39;-1.70;99.90
21312;DHT22;18076;52.154;10.570;2023-03-01T00:48:05;-1.70;99.90
21312;DHT22;18076;52.154;10.570;2023-03-01T00:50:30;-1.70;99.90
21312;DHT22;18076;52.154;10.570;2023-03-01T00:52:56;-1.70;99.90
21312;DHT22;18076;52.154;10.570;2023-03-01T00:55:21;-1.70;99.90
21312;DHT22;18076;52.154;10.570;2023-03-01T00:57:47;-1.70;99.90
21312;DHT22;18076;52.154;10.570;2023-03-01T01:00:13;-1.70;99.90
21312;DHT22;18076;52.154;10.570;2023-03-01T01:02:38;-1.80;99.90
21312;DHT22;18076;52.154;10.570;2023-03-01T01:05:04;-1.80;99.90
21312;DHT22;18076;52.154;10.570;2023-03-01T01:07:30;-1.90;99.90
21312;DHT22;18076;52.154;10.570;2023-03-01T01:09:55;-1.90;99.90
21312;DHT22;18076;52.154;10.570;2023-03-01T01:12:21;-1.90;99.90
21312;DHT22;18076;52.154;10.570;2023-03-01T01:14:46;-2.00;99.90
21312;DHT22;18076;52.154;10.570;2023-03-01T01:17:12;-2.10;99.90
21312;DHT22;18076;52.154;10.570;2023-03-01T01:19:38;-2.10;99.90
21312;DHT22;18076;52.154;10.570;2023-03-01T01:22:03;-2.20;99.90
21312;DHT22;18076;52.154;10.570;2023-03-01T01:24:29;-2.20;99.90
21312;DHT22;18076;52.154;10.570;2023-03-01T01:26:55;-2.30;99.90
21312;DHT22;18076;52.154;10.570;2023-03-01T01:29:20;-2.30;99.90
21312;DHT22;18076;52.154;10.570;2023-03-01T01:31:46;-2.30;99.90
21312;DHT22;18076;52.154;10.570;2023-03-01T01:34:16;-2.30;99.90
21312;DHT22;18076;52.154;10.570;2023-03-01T01:36:41;-2.40;99.90
21312;DHT22;18076;52.154;10.570;2023-03-01T01:39:07;-2.30;99.90
21312;DHT22;18076;52.154;10.570;2023-03-01T01:41:39;-2.30;99.90
21312;DHT22;18076;52.154;10.570;2023-03-01T01:44:12;-2.40;99.90
21312;DHT22;18076;52.154;10.570;2023-03-01T01:46:39;-2.40;99.90
21312;DHT22;18076;52.154;10.570;2023-03-01T01:49:17;-2.40;99.90
21312;DHT22;18076;52.154;10.570;2023-03-01T01:51:45;-2.40;99.90
21312;DHT22;18076;52.154;10.570;2023-03-01T01:54:21;-2.40;99.90
21312;DHT22;18076;52.154;10.570;2023-03-01T01:56:48;-2.40;99.90
21312;DHT22;18076;52.154;10.570;2023-03-01T01:59:15;-2.50;99.90
21312;DHT22;18076;52.154;10.570;2023-03-01T02:01:41;-2.50;99.90
21312;DHT22;18076;52.154;10.570;2023-03-01T02:04:07;-2.60;99.90
21312;DHT22;18076;52.154;10.570;2023-03-01T02:06:33;-2.60;99.90
21312;DHT22;18076;52.154;10.570;2023-03-01T02:09:03;-2.60;99.90
21312;DHT22;18076;52.154;10.570;2023-03-01T02:11:30;-2.70;99.90
21312;DHT22;18076;52.154;10.570;2023-03-01T02:13:56;-2.70;99.90
21312;DHT22;18076;52.154;10.570;2023-03-01T02:16:22;-2.70;99.90
21312;DHT22;18076;52.154;10.570;2023-03-01T02:18:47;-2.70;99.90
21312;DHT22;18076;52.154;10.570;2023-03-01T02:23:59;-2.70;99.90
21312;DHT22;18076;52.154;10.570;2023-03-01T02:26:40;-2.60;99.90
21312;DHT22;18076;52.154;10.570;2023-03-01T02:29:07;-2.70;99.90
21312;DHT22;18076;52.154;10.570;2023-03-01T02:31:33;-2.80;99.90
21312;DHT22;18076;52.154;10.570;2023-03-01T02:34:18;-2.80;99.90
21312;DHT22;18076;52.154;10.570;2023-03-01T02:36:52;-2.80;99.90
21312;DHT22;18076;52.154;10.570;2023-03-01T02:39:21;-2.90;99.90
21312;DHT22;18076;52.154;10.570;2023-03-01T02:41:51;-2.90;99.90
21312;DHT22;18076;52.154;10.570;2023-03-01T02:44:17;-2.90;99.90
21312;DHT22;18076;52.154;10.570;2023-03-01T02:46:44;-2.90;99.90
21312;DHT22;18076;52.154;10.570;2023-03-01T02:52:27;-2.90;99.90
21312;DHT22;18076;52.154;10.570;2023-03-01T02:55:03;-2.90;99.90
21312;DHT22;18076;52.154;10.570;2023-03-01T02:57:31;-2.90;99.90
21312;DHT22;18076;52.154;10.570;2023-03-01T02:59:59;-3.00;99.90
21312;DHT22;18076;52.154;10.570;2023-03-01T03:02:26;-3.00;99.90
21312;DHT22;18076;52.154;10.570;2023-03-01T03:07:32;-3.10;99.90
21312;DHT22;18076;52.154;10.570;2023-03-01T03:09:58;-3.20;99.90
21312;DHT22;18076;52.154;10.570;2023-03-01T03:12:23;-3.20;99.90
21312;DHT22;18076;52.154;10.570;2023-03-01T03:14:49;-3.20;99.90
21312;DHT22;18076;52.154;10.570;2023-03-01T03:17:14;-3.20;99.90
21312;DHT22;18076;52.154;10.570;2023-03-01T03:19:40;-3.20;99.90
21312;DHT22;18076;52.154;10.570;2023-03-01T03:22:05;-3.20;99.90
21312;DHT22;18076;52.154;10.570;2023-03-01T03:24:31;-3.20;99.90
21312;DHT22;18076;52.154;10.570;2023-03-01T03:27:03;-3.20;99.90
21312;DHT22;18076;52.154;10.570;2023-03-01T03:29:29;-3.30;99.90
21312;DHT22;18076;52.154;10.570;2023-03-01T03:31:54;-3.30;99.90
21312;DHT22;18076;52.154;10.570;2023-03-01T03:34:20;-3.40;99.90
21312;DHT22;18076;52.154;10.570;2023-03-01T03:36:45;-3.40;99.90
21312;DHT22;18076;52.154;10.570;2023-03-01T03:39:11;-3.40;99.90
21312;DHT22;18076;52.154;10.570;2023-03-01T03:41:36;-3.40;99.90
21312;DHT22;18076;52.154;10.570;2023-03-01T03:44:02;-3.40;99.90
21312;DHT22;18076;52.154;10.570;2023-03-01T03:46:27;-3.40;99.90
21312;DHT22;18076;52.154;10.570;2023-03-01T03:48:53;-3.40;99.90
21312;DHT22;18076;52.154;10.570;2023-03-01T03:51:19;-3.40;99.90
21312;DHT22;18076;52.154;10.570;2023-03-01T03:53:44;-3.40;99.90
21312;DHT22;18076;52.154;10.570;2023-03-01T03:56:10;-3.40;99.90
21312;DHT22;18076;52.154;10.570;2023-03-01T03:58:36;-3.40;99.90
21312;DHT22;18076;52.154;10.570;2023-03-01T04:01:02;-3.30;99.90
21312;DHT22;18076;52.154;10.570;2023-03-01T04:03:28;-3.50;99.90
21312;DHT22;18076;52.154;10.570;2023-03-01T04:05:54;-3.50;99.90
21312;DHT22;18076;52.154;10.570;2023-03-01T04:08:20;-3.50;99.90
21312;DHT22;18076;52.154;10.570;2023-03-01T04:10:47;-3.50;99.90
21312;DHT22;18076;52.154;10.570;2023-03-01T04:13:16;-3.60;99.90
21312;DHT22;18076;52.154;10.570;2023-03-01T04:15:42;-3.60;99.90
21312;DHT22;18076;52.154;10.570;2023-03-01T04:18:14;-3.70;99.90
21312;DHT22;18076;52.154;10.570;2023-03-01T04:20:40;-3.70;99.90
21312;DHT22;18076;52.154;10.570;2023-03-01T04:23:07;-3.70;99.90
21312;DHT22;18076;52.154;10.570;2023-03-01T04:25:48;-3.70;99.90
21312;DHT22;18076;52.154;10.570;2023-03-01T04:30:46;-3.70;99.90
21312;DHT22;18076;52.154;10.570;2023-03-01T04:33:12;-3.70;99.90
21312;DHT22;18076;52.154;10.570;2023-03-01T04:35:37;-3.70;99.90
21312;DHT22;18076;52.154;10.570;2023-03-01T04:38:04;-3.70;99.90
21312;DHT22;18076;52.154;10.570;2023-03-01T04:40:30;-3.80;99.90
21312;DHT22;18076;52.154;10.570;2023-03-01T04:42:55;-3.80;99.90
21312;DHT22;18076;52.154;10.570;2023-03-01T04:45:21;-3.80;99.90
21312;DHT22;18076;52.154;10.570;2023-03-01T04:47:47;-3.80;99.90
21312;DHT22;18076;52.154;10.570;2023-03-01T04:50:14;-3.90;99.90
21312;DHT22;18076;52.154;10.570;2023-03-01T04:52:41;-3.90;99.90
21312;DHT22;18076;52.154;10.570;2023-03-01T04:55:07;-4.00;99.90
21312;DHT22;18076;52.154;10.570;2023-03-01T04:57:33;-4.00;99.90
21312;DHT22;18076;52.154;10.570;2023-03-01T04:59:59;-4.00;99.90
21312;DHT22;18076;52.154;10.570;2023-03-01T05:02:24;-4.00;99.90
21312;DHT22;18076;52.154;10.570;2023-03-01T05:04:50;-4.00;99.90
21312;DHT22;18076;52.154;10.570;2023-03-01T05:07:15;-4.00;99.90
21312;DHT22;18076;52.154;10.570;2023-03-01T05:09:48;-4.00;99.90
21312;DHT22;18076;52.154;10.570;2023-03-01T05:12:14;-4.10;99.90
21312;DHT22;18076;52.154;10.570;2023-03-01T05:14:40;-4.00;99.90
21312;DHT22;18076;52.154;10.570;2023-03-01T05:17:06;-4.00;99.90
21312;DHT22;18076;52.154;10.570;2023-03-01T05:19:31;-4.00;99.90
21312;DHT22;18076;52.154;10.570;2023-03-01T05:21:58;-4.00;99.90
21312;DHT22;18076;52.154;10.570;2023-03-01T05:24:27;-4.10;99.90
21312;DHT22;18076;52.154;10.570;2023-03-01T05:26:52;-4.10;99.90
21312;DHT22;18076;52.154;10.570;2023-03-01T05:29:21;-4.10;99.90
21312;DHT22;18076;52.154;10.570;2023-03-01T05:31:53;-4.10;99.90
21312;DHT22;18076;52.154;10.570;2023-03-01T05:34:23;-4.20;99.90
21312;DHT22;18076;52.154;10.570;2023-03-01T05:36:49;-4.20;99.90
21312;DHT22;18076;52.154;10.570;2023-03-01T05:39:22;-4.20;99.90
21312;DHT22;18076;52.154;10.570;2023-03-01T05:41:48;-4.20;99.90
21312;DHT22;18076;52.154;10.570;2023-03-01T05:44:17;-4.20;99.90
21312;DHT22;18076;52.154;10.570;2023-03-01T05:46:42;-4.30;99.90
21312;DHT22;18076;52.154;10.570;2023-03-01T05:49:08;-4.30;99.90
21312;DHT22;18076;52.154;10.570;2023-03-01T05:51:33;-4.30;99.90
21312;DHT22;18076;52.154;10.570;2023-03-01T05:53:59;-4.30;99.90
21312;DHT22;18076;52.154;10.570;2023-03-01T05:56:25;-4.30;99.90
21312;DHT22;18076;52.154;10.570;2023-03-01T05:58:52;-4.30;99.90
21312;DHT22;18076;52.154;10.570;2023-03-01T06:01:18;-4.30;99.90
21312;DHT22;18076;52.154;10.570;2023-03-01T06:03:43;-4.30;99.90
21312;DHT22;18076;52.154;10.570;2023-03-01T06:06:09;-4.30;99.90
21312;DHT22;18076;52.154;10.570;2023-03-01T06:08:34;-4.20;99.90
21312;DHT22;18076;52.154;10.570;2023-03-01T06:11:00;-4.20;99.90
21312;DHT22;18076;52.154;10.570;2023-03-01T06:13:25;-4.20;99.90
21312;DHT22;18076;52.154;10.570;2023-03-01T06:15:51;-4.20;99.90
21312;DHT22;18076;52.154;10.570;2023-03-01T06:18:17;-4.20;99.90
21312;DHT22;18076;52.154;10.570;2023-03-01T06:20:42;-4.20;99.90
21312;DHT22;18076;52.154;10.570;2023-03-01T06:23:08;-4.10;99.90
21312;DHT22;18076;52.154;10.570;2023-03-01T06:25:34;-3.80;99.90
21312;DHT22;18076;52.154;10.570;2023-03-01T06:28:00;-3.10;99.90
21312;DHT22;18076;52.154;10.570;2023-03-01T06:30:25;-2.30;99.90
21312;DHT22;18076;52.154;10.570;2023-03-01T06:32:51;-1.50;99.90
21312;DHT22;18076;52.154;10.570;2023-03-01T06:35:18;-0.80;99.90
21312;DHT22;18076;52.154;10.570;2023-03-01T06:37:44;-0.10;99.90
21312;DHT22;18076;52.154;10.570;2023-03-01T06:40:09;0.60;99.90
21312;DHT22;18076;52.154;10.570;2023-03-01T06:42:37;1.20;99.90
21312;DHT22;18076;52.154;10.570;2023-03-01T06:45:03;1.40;99.90
21312;DHT22;18076;52.154;10.570;2023-03-01T06:47:29;1.20;99.90
21312;DHT22;18076;52.154;10.570;2023-03-01T06:49:55;0.80;99.90
21312;DHT22;18076;52.154;10.570;2023-03-01T06:52:20;1.00;99.90
21312;DHT22;18076;52.154;10.570;2023-03-01T06:54:46;1.40;99.90
21312;DHT22;18076;52.154;10.570;2023-03-01T06:57:11;1.60;99.90
21312;DHT22;18076;52.154;10.570;2023-03-01T06:59:37;1.50;99.90
21312;DHT22;18076;52.154;10.570;2023-03-01T07:02:02;1.60;99.90
21312;DHT22;18076;52.154;10.570;2023-03-01T07:04:28;1.40;99.90
21312;DHT22;18076;52.154;10.570;2023-03-01T07:06:56;0.90;99.90
21312;DHT22;18076;52.154;10.570;2023-03-01T07:09:22;0.50;99.90
21312;DHT22;18076;52.154;10.570;2023-03-01T07:11:48;0.10;99.90
21312;DHT22;18076;52.154;10.570;2023-03-01T07:14:14;-0.60;99.90
21312;DHT22;18076;52.154;10.570;2023-03-01T07:16:39;-0.40;99.90
21312;DHT22;18076;52.154;10.570;2023-03-01T07:19:05;0.50;99.90
21312;DHT22;18076;52.154;10.570;2023-03-01T07:21:31;1.90;99.90
21312;DHT22;18076;52.154;10.570;2023-03-01T07:23:56;3.10;99.90
21312;DHT22;18076;52.154;10.570;2023-03-01T07:26:22;4.20;99.90
21312;DHT22;18076;52.154;10.570;2023-03-01T07:28:47;5.00;99.90
21312;DHT22;18076;52.154;10.570;2023-03-01T07:31:13;5.80;99.90
21312;DHT22;18076;52.154;10.570;2023-03-01T07:33:38;5.60;99.90
21312;DHT22;18076;52.154;10.570;2023-03-01T07:36:04;5.30;99.90
21312;DHT22;18076;52.154;10.570;2023-03-01T07:38:30;5.60;99.90
21312;DHT22;18076;52.154;10.570;2023-03-01T07:41:00;6.00;99.90
21312;DHT22;18076;52.154;10.570;2023-03-01T07:43:26;6.50;99.90
21312;DHT22;18076;52.154;10.570;2023-03-01T07:45:52;7.00;99.90
21312;DHT22;18076;52.154;10.570;2023-03-01T07:48:18;7.30;99.90
21312;DHT22;18076;52.154;10.570;2023-03-01T07:50:43;7.60;99.90
21312;DHT22;18076;52.154;10.570;2023-03-01T07:53:09;7.60;99.90
21312;DHT22;18076;52.154;10.570;2023-03-01T07:55:35;8.00;99.90
21312;DHT22;18076;52.154;10.570;2023-03-01T07:58:01;8.40;99.90
21312;DHT22;18076;52.154;10.570;2023-03-01T08:00:27;8.70;99.90
21312;DHT22;18076;52.154;10.570;2023-03-01T08:02:52;9.00;99.90
21312;DHT22;18076;52.154;10.570;2023-03-01T08:05:18;9.30;99.90
21312;DHT22;18076;52.154;10.570;2023-03-01T08:07:43;9.70;99.90
21312;DHT22;18076;52.154;10.570;2023-03-01T08:10:09;9.70;99.90
21312;DHT22;18076;52.154;10.570;2023-03-01T08:12:35;10.20;99.90
21312;DHT22;18076;52.154;10.570;2023-03-01T08:15:00;10.60;99.90
21312;DHT22;18076;52.154;10.570;2023-03-01T08:17:26;10.60;99.90
21312;DHT22;18076;52.154;10.570;2023-03-01T08:19:51;10.80;99.90
21312;DHT22;18076;52.154;10.570;2023-03-01T08:22:17;11.10;99.90
21312;DHT22;18076;52.154;10.570;2023-03-01T08:24:42;11.40;99.90
21312;DHT22;18076;52.154;10.570;2023-03-01T08:27:08;11.70;99.50
21312;DHT22;18076;52.154;10.570;2023-03-01T08:29:34;11.70;98.50
21312;DHT22;18076;52.154;10.570;2023-03-01T08:31:59;11.50;97.60
21312;DHT22;18076;52.154;10.570;2023-03-01T08:34:25;11.20;97.30
21312;DHT22;18076;52.154;10.570;2023-03-01T08:36:50;10.90;97.70
21312;DHT22;18076;52.154;10.570;2023-03-01T08:39:17;10.30;98.20
21312;DHT22;18076;52.154;10.570;2023-03-01T08:41:44;10.40;98.90
21312;DHT22;18076;52.154;10.570;2023-03-01T08:44:10;10.80;99.00
21312;DHT22;18076;52.154;10.570;2023-03-01T08:46:37;11.00;97.90
21312;DHT22;18076;52.154;10.570;2023-03-01T08:49:04;11.20;98.10
21312;DHT22;18076;52.154;10.570;2023-03-01T08:51:29;11.30;98.30
21312;DHT22;18076;52.154;10.570;2023-03-01T08:53:57;11.60;97.90
21312;DHT22;18076;52.154;10.570;2023-03-01T08:56:22;11.60;96.90
21312;DHT22;18076;52.154;10.570;2023-03-01T08:58:48;11.50;96.80
21312;DHT22;18076;52.154;10.570;2023-03-01T09:01:15;11.20;96.60
21312;DHT22;18076;52.154;10.570;2023-03-01T09:03:41;11.30;97.20
21312;DHT22;18076;52.154;10.570;2023-03-01T09:06:06;11.50;97.00
21312;DHT22;18076;52.154;10.570;2023-03-01T09:08:38;11.80;97.30
21312;DHT22;18076;52.154;10.570;2023-03-01T09:11:05;12.30;97.20
21312;DHT22;18076;52.154;10.570;2023-03-01T09:13:31;12.50;96.50
21312;DHT22;18076;52.154;10.570;2023-03-01T09:15:58;12.70;96.20
21312;DHT22;18076;52.154;10.570;2023-03-01T09:18:23;12.90;95.80
21312;DHT22;18076;52.154;10.570;2023-03-01T09:20:49;12.80;95.30
21312;DHT22;18076;52.154;10.570;2023-03-01T09:23:14;13.00;95.20
21312;DHT22;18076;52.154;10.570;2023-03-01T09:25:40;13.00;94.90
21312;DHT22;18076;52.154;10.570;2023-03-01T09:28:05;13.00;94.80
21312;DHT22;18076;52.154;10.570;2023-03-01T09:30:31;13.10;94.80
21312;DHT22;18076;52.154;10.570;2023-03-01T09:32:56;13.30;93.90
21312;DHT22;18076;52.154;10.570;2023-03-01T09:35:22;13.00;93.60
21312;DHT22;18076;52.154;10.570;2023-03-01T09:37:48;13.30;94.30
21312;DHT22;18076;52.154;10.570;2023-03-01T09:40:24;13.30;94.20
21312;DHT22;18076;52.154;10.570;2023-03-01T09:42:56;13.20;93.50
21312;DHT22;18076;52.154;10.570;2023-03-01T09:45:26;13.30;92.40
21312;DHT22;18076;52.154;10.570;2023-03-01T09:47:52;12.90;93.10
21312;DHT22;18076;52.154;10.570;2023-03-01T09:50:19;13.10;93.20
21312;DHT22;18076;52.154;10.570;2023-03-01T09:53:09;13.20;92.50
21312;DHT22;18076;52.154;10.570;2023-03-01T09:55:43;13.10;92.50
21312;DHT22;18076;52.154;10.570;2023-03-01T10:00:46;12.60;92.10
21312;DHT22;18076;52.154;10.570;2023-03-01T10:05:53;13.50;93.40
21312;DHT22;18076;52.154;10.570;2023-03-01T10:11:05;13.70;92.30
21312;DHT22;18076;52.154;10.570;2023-03-01T10:16:22;13.80;91.00
21312;DHT22;18076;52.154;10.570;2023-03-01T10:18:55;14.20;91.20
21312;DHT22;18076;52.154;10.570;2023-03-01T10:21:23;14.60;90.40
21312;DHT22;18076;52.154;10.570;2023-03-01T10:23:49;14.50;90.00
21312;DHT22;18076;52.154;10.570;2023-03-01T10:26:25;14.70;90.10
21312;DHT22;18076;52.154;10.570;2023-03-01T10:31:18;14.80;87.40
21312;DHT22;18076;52.154;10.570;2023-03-01T10:33:45;14.60;87.30
21312;DHT22;18076;52.154;10.570;2023-03-01T10:36:13;14.50;87.00
21312;DHT22;18076;52.154;10.570;2023-03-01T10:38:52;14.40;85.90
21312;DHT22;18076;52.154;10.570;2023-03-01T10:41:19;14.30;86.40
21312;DHT22;18076;52.154;10.570;2023-03-01T10:43:46;14.20;85.80
21312;DHT22;18076;52.154;10.570;2023-03-01T10:51:41;13.50;84.80
21312;DHT22;18076;52.154;10.570;2023-03-01T10:54:41;13.10;85.70
21312;DHT22;18076;52.154;10.570;2023-03-01T10:57:04;12.90;85.80
21312;DHT22;18076;52.154;10.570;2023-03-01T11:04:40;12.70;83.90
21312;DHT22;18076;52.154;10.570;2023-03-01T11:07:21;12.70;83.80
21312;DHT22;18076;52.154;10.570;2023-03-01T11:09:46;12.90;84.40
21312;DHT22;18076;52.154;10.570;2023-03-01T11:12:15;13.20;84.50
21312;DHT22;18076;52.154;10.570;2023-03-01T11:14:52;13.60;83.80
21312;DHT22;18076;52.154;10.570;2023-03-01T11:17:23;13.90;83.10
21312;DHT22;18076;52.154;10.570;2023-03-01T11:20:06;13.40;81.50
21312;DHT22;18076;52.154;10.570;2023-03-01T11:22:35;12.70;82.40
21312;DHT22;18076;52.154;10.570;2023-03-01T11:25:01;12.30;83.90
21312;DHT22;18076;52.154;10.570;2023-03-01T11:27:45;12.30;83.60
21312;DHT22;18076;52.154;10.570;2023-03-01T11:30:20;12.40;85.40
21312;DHT22;18076;52.154;10.570;2023-03-01T11:35:31;12.70;84.50
21312;DHT22;18076;52.154;10.570;2023-03-01T11:40:25;12.70;83.60
21312;DHT22;18076;52.154;10.570;2023-03-01T11:42:56;12.80;84.40
21312;DHT22;18076;52.154;10.570;2023-03-01T11:45:25;13.20;84.20
21312;DHT22;18076;52.154;10.570;2023-03-01T11:48:05;13.70;83.40
21312;DHT22;18076;52.154;10.570;2023-03-01T12:21:46;12.00;84.50
21312;DHT22;18076;52.154;10.570;2023-03-01T12:29:25;12.10;82.90
21312;DHT22;18076;52.154;10.570;2023-03-01T12:32:03;12.30;83.60
21312;DHT22;18076;52.154;10.570;2023-03-01T12:34:39;12.60;82.10
21312;DHT22;18076;52.154;10.570;2023-03-01T12:52:43;13.00;79.30
21312;DHT22;18076;52.154;10.570;2023-03-01T12:58:05;13.40;80.30
21312;DHT22;18076;52.154;10.570;2023-03-01T13:00:39;13.50;79.50
21312;DHT22;18076;52.154;10.570;2023-03-01T13:06:09;13.70;77.40
21312;DHT22;18076;52.154;10.570;2023-03-01T13:11:04;13.00;77.20
21312;DHT22;18076;52.154;10.570;2023-03-01T13:13:30;12.70;78.50
21312;DHT22;18076;52.154;10.570;2023-03-01T13:15:56;12.80;80.70
21312;DHT22;18076;52.154;10.570;2023-03-01T13:20:49;13.20;79.50
21312;DHT22;18076;52.154;10.570;2023-03-01T13:30:59;12.50;76.50
21312;DHT22;18076;52.154;10.570;2023-03-01T13:35:54;11.60;78.50
21312;DHT22;18076;52.154;10.570;2023-03-01T13:41:06;11.90;78.10
21312;DHT22;18076;52.154;10.570;2023-03-01T13:43:35;12.00;78.50
21312;DHT22;18076;52.154;10.570;2023-03-01T13:46:02;11.60;75.90
21312;DHT22;18076;52.154;10.570;2023-03-01T13:48:32;11.10;76.80
21312;DHT22;18076;52.154;10.570;2023-03-01T13:50:59;11.00;78.70
21312;DHT22;18076;52.154;10.570;2023-03-01T13:53:26;11.10;78.10
21312;DHT22;18076;52.154;10.570;2023-03-01T13:56:01;11.20;78.10
21312;DHT22;18076;52.154;10.570;2023-03-01T14:01:18;10.70;81.50
21312;DHT22;18076;52.154;10.570;2023-03-01T14:03:41;10.60;79.10
21312;DHT22;18076;52.154;10.570;2023-03-01T14:06:18;10.50;80.50
21312;DHT22;18076;52.154;10.570;2023-03-01T14:08:45;10.50;79.90
21312;DHT22;18076;52.154;10.570;2023-03-01T14:16:24;10.90;79.80
21312;DHT22;18076;52.154;10.570;2023-03-01T14:19:07;10.70;77.10
21312;DHT22;18076;52.154;10.570;2023-03-01T14:21:37;10.50;76.90
21312;DHT22;18076;52.154;10.570;2023-03-01T14:24:03;10.50;78.80
21312;DHT22;18076;52.154;10.570;2023-03-01T14:26:29;10.60;78.80
21312;DHT22;18076;52.154;10.570;2023-03-01T14:28:55;10.50;78.30
21312;DHT22;18076;52.154;10.570;2023-03-01T14:31:39;10.70;78.70
21312;DHT22;18076;52.154;10.570;2023-03-01T14:34:05;10.80;77.60
21312;DHT22;18076;52.154;10.570;2023-03-01T14:36:32;11.00;78.30
21312;DHT22;18076;52.154;10.570;2023-03-01T14:38:58;11.00;78.00
21312;DHT22;18076;52.154;10.570;2023-03-01T14:41:31;10.90;77.50
21312;DHT22;18076;52.154;10.570;2023-03-01T14:43:58;10.90;78.80
21312;DHT22;18076;52.154;10.570;2023-03-01T14:46:41;11.10;78.80
21312;DHT22;18076;52.154;10.570;2023-03-01T14:49:12;11.20;79.50
21312;DHT22;18076;52.154;10.570;2023-03-01T14:51:39;11.30;78.60
21312;DHT22;18076;52.154;10.570;2023-03-01T14:54:27;11.20;79.20
21312;DHT22;18076;52.154;10.570;2023-03-01T14:56:51;11.00;80.10
21312;DHT22;18076;52.154;10.570;2023-03-01T14:59:21;11.00;81.00
21312;DHT22;18076;52.154;10.570;2023-03-01T15:01:47;10.70;80.90
21312;DHT22;18076;52.154;10.570;2023-03-01T15:04:13;10.50;82.70
21312;DHT22;18076;52.154;10.570;2023-03-01T15:06:39;10.50;83.10
21312;DHT22;18076;52.154;10.570;2023-03-01T15:09:05;10.50;83.60
21312;DHT22;18076;52.154;10.570;2023-03-01T15:11:32;10.60;83.50
21312;DHT22;18076;52.154;10.570;2023-03-01T15:13:58;10.60;83.00
21312;DHT22;18076;52.154;10.570;2023-03-01T15:16:31;10.70;82.90
21312;DHT22;18076;52.154;10.570;2023-03-01T15:19:04;10.60;82.50
21312;DHT22;18076;52.154;10.570;2023-03-01T15:21:31;10.40;83.00
21312;DHT22;18076;52.154;10.570;2023-03-01T15:24:00;10.10;83.10
21312;DHT22;18076;52.154;10.570;2023-03-01T15:26:29;10.10;84.00
21312;DHT22;18076;52.154;10.570;2023-03-01T15:28:55;9.90;83.90
21312;DHT22;18076;52.154;10.570;2023-03-01T15:31:29;9.60;83.60
21312;DHT22;18076;52.154;10.570;2023-03-01T15:34:08;9.50;83.80
21312;DHT22;18076;52.154;10.570;2023-03-01T15:39:00;9.30;84.50
21312;DHT22;18076;52.154;10.570;2023-03-01T15:41:27;9.10;85.20
21312;DHT22;18076;52.154;10.570;2023-03-01T15:43:56;9.10;86.40
21312;DHT22;18076;52.154;10.570;2023-03-01T15:48:49;9.20;86.60
21312;DHT22;18076;52.154;10.570;2023-03-01T15:51:17;9.10;87.10
21312;DHT22;18076;52.154;10.570;2023-03-01T15:53:47;9.00;87.80
21312;DHT22;18076;52.154;10.570;2023-03-01T15:56:13;9.00;87.60
21312;DHT22;18076;52.154;10.570;2023-03-01T15:58:38;9.10;87.90
21312;DHT22;18076;52.154;10.570;2023-03-01T16:01:08;9.10;87.10
21312;DHT22;18076;52.154;10.570;2023-03-01T16:03:37;9.10;87.80
21312;DHT22;18076;52.154;10.570;2023-03-01T16:06:03;9.00;87.80
21312;DHT22;18076;52.154;10.570;2023-03-01T16:08:29;8.90;88.50
21312;DHT22;18076;52.154;10.570;2023-03-01T16:10:54;8.80;89.30
21312;DHT22;18076;52.154;10.570;2023-03-01T16:13:20;8.70;89.80
21312;DHT22;18076;52.154;10.570;2023-03-01T16:15:45;8.70;89.50
21312;DHT22;18076;52.154;10.570;2023-03-01T16:18:11;8.50;90.00
21312;DHT22;18076;52.154;10.570;2023-03-01T16:20:37;8.40;90.00
21312;DHT22;18076;52.154;10.570;2023-03-01T16:23:04;8.10;90.50
21312;DHT22;18076;52.154;10.570;2023-03-01T16:25:30;8.10;91.30
21312;DHT22;18076;52.154;10.570;2023-03-01T16:27:57;8.00;91.60
21312;DHT22;18076;52.154;10.570;2023-03-01T16:30:25;7.90;91.90
21312;DHT22;18076;52.154;10.570;2023-03-01T16:32:50;7.90;91.90
21312;DHT22;18076;52.154;10.570;2023-03-01T16:35:17;7.90;92.10
21312;DHT22;18076;52.154;10.570;2023-03-01T16:37:43;7.70;92.50
21312;DHT22;18076;52.154;10.570;2023-03-01T16:40:28;7.70;93.00
21312;DHT22;18076;52.154;10.570;2023-03-01T16:42:54;7.60;93.20
21312;DHT22;18076;52.154;10.570;2023-03-01T16:45:20;7.50;93.50
21312;DHT22;18076;52.154;10.570;2023-03-01T16:47:46;7.40;93.80
21312;DHT22;18076;52.154;10.570;2023-03-01T16:50:12;7.20;94.30
21312;DHT22;18076;52.154;10.570;2023-03-01T16:52:40;7.10;94.50
21312;DHT22;18076;52.154;10.570;2023-03-01T16:55:06;6.90;95.00
21312;DHT22;18076;52.154;10.570;2023-03-01T16:57:36;6.80;95.40
21312;DHT22;18076;52.154;10.570;2023-03-01T17:00:02;6.60;95.60
21312;DHT22;18076;52.154;10.570;2023-03-01T17:02:31;6.50;95.90
21312;DHT22;18076;52.154;10.570;2023-03-01T17:04:56;6.40;96.30
21312;DHT22;18076;52.154;10.570;2023-03-01T17:07:22;6.30;96.60
21312;DHT22;18076;52.154;10.570;2023-03-01T17:09:47;6.10;96.90
21312;DHT22;18076;52.154;10.570;2023-03-01T17:12:13;6.00;97.20
21312;DHT22;18076;52.154;10.570;2023-03-01T17:14:39;5.90;97.60
21312;DHT22;18076;52.154;10.570;2023-03-01T17:17:10;5.80;97.90
21312;DHT22;18076;52.154;10.570;2023-03-01T17:19:35;5.70;98.20
21312;DHT22;18076;52.154;10.570;2023-03-01T17:22:06;5.60;98.50
21312;DHT22;18076;52.154;10.570;2023-03-01T17:24:32;5.60;99.00
21312;DHT22;18076;52.154;10.570;2023-03-01T17:26:58;5.50;99.20
21312;DHT22;18076;52.154;10.570;2023-03-01T17:29:23;5.40;99.70
21312;DHT22;18076;52.154;10.570;2023-03-01T17:31:49;5.30;99.90